Northborough, MA

3:48 PM EDT on April 26, 2017 (GMT -0400)
Pleasant / Lincoln St. | | Change Station

Elev 285 ft 42.32 °N, 71.65 °W | Updated 4 seconds ago

Overcast
Overcast
58.8 °F
Feels Like 58.8 °F
N
0.0
Wind Variable Wind from NE

Today
High -- | Low -- °F
--% Chance of Precip.
Yesterday
High -- | Low -- °F
Precip. -- in
Pressure 29.86 in
Visibility 0.2 miles
Clouds Overcast 200 ft
Dew Point 58 °F
Humidity 98%
Rainfall 0.60 in
Snow Depth Not available.
5:48 AM 7:40 PM
New Moon, 0% visible
METAR KORH 261854Z 03008KT 1/4SM R11/P6000FT BR OVC002 12/11 A2984 RMK AO2 SFC VIS 3 RAB24E40 SLP109 P0000 T01170106
Pressure 29.86 in
Visibility 0.2 miles
Clouds Overcast 200 ft
Dew Point 58 °F
Humidity 98%
Rainfall 0.60 in
Snow Depth Not available.
5:48 AM 7:40 PM
New Moon, 0% visible
METAR KORH 261854Z 03008KT 1/4SM R11/P6000FT BR OVC002 12/11 A2984 RMK AO2 SFC VIS 3 RAB24E40 SLP109 P0000 T01170106

Get Severe Weather Alerts

Thanks for signing up!

Be on the lookout for a verification email in your inbox.

You'll start receiving the daily forecast at 8 AM.

×

10-Day Weather Forecast

Almanac

Astronomy

Apr. 26, 2017 Rise Set
Actual Time
Civil Twilight
Nautical Twilight
Astronomical Twilight
Moon
Length of Visible Light
Length of Day
Tomorrow will be .
, % of the Moon is Illuminated

Today's Extremes

State Highs State Lows

Community

WunderPhotos

WunderBlog® & News

Nearby

Air Quality

  Air Quality AQ Index Pollutant
Not available.

Snow Depth

Station Depth Elevation

Earthquake Activity

City Distance Mag. Time & Date
Minimum magnitude displayed is 2.5.

Coastal Water Temperatures

Place Temperature

Stations

Nearby Weather Stations

Station Location Temp. Windchill Dew Point Humidity Wind Precip. Elev Updated Type
                   

Watches & Warnings

There are currently no watches in effect.